createdAt,value
2022-08-23T00:01:50.187Z,95871.00
2022-08-23T00:04:34.948Z,95866.00
2022-08-23T00:07:07.625Z,95864.00
2022-08-23T00:09:35.252Z,95860.00
2022-08-23T00:12:08.400Z,95867.00
2022-08-23T00:14:39.758Z,95873.00
2022-08-23T00:17:10.688Z,95866.00
2022-08-23T00:19:57.923Z,95868.00
2022-08-23T00:22:25.154Z,95867.00
2022-08-23T00:24:52.367Z,95868.00
2022-08-23T00:27:19.792Z,95862.00
2022-08-23T00:29:53.571Z,95864.00
2022-08-23T00:32:31.934Z,95866.00
2022-08-23T00:35:00.693Z,95865.00
2022-08-23T00:37:31.274Z,95860.00
2022-08-23T00:40:00.508Z,95854.00
2022-08-23T00:43:26.011Z,95860.00
2022-08-23T00:46:36.045Z,95852.00
2022-08-23T00:49:09.729Z,95847.00
2022-08-23T00:51:52.967Z,95847.00
2022-08-23T00:54:25.374Z,95852.00
2022-08-23T00:56:55.599Z,95858.00
2022-08-23T00:59:23.519Z,95848.00
2022-08-23T01:01:51.626Z,95853.00
2022-08-23T01:04:20.230Z,95857.00
2022-08-23T01:07:04.647Z,95854.00
2022-08-23T01:09:32.089Z,95857.00
2022-08-23T01:12:10.069Z,95856.00
2022-08-23T01:14:47.605Z,95850.00
2022-08-23T01:17:24.964Z,95843.00
2022-08-23T01:19:58.305Z,95841.00
2022-08-23T01:22:42.735Z,95841.00
2022-08-23T01:25:33.313Z,95831.00
2022-08-23T01:28:01.448Z,95835.00
2022-08-23T01:30:33.293Z,95843.00
2022-08-23T01:33:06.603Z,95843.00
2022-08-23T01:35:45.228Z,95841.00
2022-08-23T01:38:13.702Z,95850.00
2022-08-23T01:40:43.061Z,95855.00
2022-08-23T01:43:13.134Z,95848.00
2022-08-23T01:45:42.723Z,95852.00
2022-08-23T01:48:12.149Z,95847.00
2022-08-23T01:50:40.288Z,95845.00
2022-08-23T01:53:08.115Z,95849.00
2022-08-23T01:55:36.438Z,95860.00
2022-08-23T01:58:06.482Z,95853.00
2022-08-23T02:00:40.047Z,95853.00
2022-08-23T02:03:08.803Z,95855.00
2022-08-23T02:05:37.322Z,95863.00
2022-08-23T02:08:26.304Z,95860.00
2022-08-23T02:10:56.844Z,95859.00
2022-08-23T02:13:26.224Z,95863.00
2022-08-23T02:15:55.197Z,95860.00
2022-08-23T02:18:23.985Z,95866.00
2022-08-23T02:20:53.462Z,95868.00
2022-08-23T02:23:22.981Z,95860.00
2022-08-23T02:25:52.015Z,95871.00
2022-08-23T02:28:22.306Z,95872.00
2022-08-23T02:30:50.565Z,95875.00
2022-08-23T02:33:18.335Z,95881.00
2022-08-23T02:35:45.646Z,95888.00
2022-08-23T02:38:13.512Z,95879.00
2022-08-23T02:40:42.317Z,95882.00
2022-08-23T02:43:10.169Z,95888.00
2022-08-23T02:45:39.011Z,95882.00
2022-08-23T02:48:09.424Z,95881.00
2022-08-23T02:50:52.362Z,95882.00
2022-08-23T02:53:19.855Z,95881.00
2022-08-23T02:55:48.203Z,95891.00
2022-08-23T02:58:15.572Z,95891.00
2022-08-23T03:00:48.726Z,95885.00
2022-08-23T03:03:16.407Z,95883.00
2022-08-23T03:05:44.367Z,95888.00
2022-08-23T03:08:12.063Z,95888.00
2022-08-23T03:10:49.628Z,95885.00
2022-08-23T03:13:17.477Z,95883.00
2022-08-23T03:15:46.589Z,95880.00
2022-08-23T03:18:14.125Z,95881.00
2022-08-23T03:20:42.242Z,95894.00
2022-08-23T03:23:12.240Z,95888.00
2022-08-23T03:25:40.454Z,95884.00
2022-08-23T03:28:24.303Z,95885.00
2022-08-23T03:30:51.896Z,95881.00
2022-08-23T03:33:19.751Z,95884.00
2022-08-23T03:35:47.733Z,95889.00
2022-08-23T03:38:16.060Z,95884.00
2022-08-23T03:40:44.773Z,95881.00
2022-08-23T03:43:12.282Z,95876.00
2022-08-23T03:45:39.609Z,95883.00
2022-08-23T03:48:07.737Z,95878.00
2022-08-23T03:50:36.379Z,95887.00
2022-08-23T03:53:03.852Z,95890.00
2022-08-23T03:55:31.278Z,95891.00
2022-08-23T03:58:00.810Z,95892.00
2022-08-23T04:00:28.530Z,95900.00
2022-08-23T04:02:56.000Z,95897.00
2022-08-23T04:05:25.179Z,95896.00
2022-08-23T04:07:53.917Z,95893.00
2022-08-23T04:10:24.244Z,95899.00
2022-08-23T04:12:55.097Z,95903.00
2022-08-23T04:15:23.360Z,95904.00
2022-08-23T04:17:51.147Z,95908.00
2022-08-23T04:20:18.486Z,95905.00
2022-08-23T04:22:55.377Z,95907.00
2022-08-23T04:25:34.846Z,95913.00
2022-08-23T04:28:05.108Z,95916.00
2022-08-23T04:30:33.736Z,95904.00
2022-08-23T04:33:02.054Z,95908.00
2022-08-23T04:35:33.731Z,95919.00
2022-08-23T04:38:01.758Z,95921.00
2022-08-23T04:40:47.990Z,95922.00
2022-08-23T04:43:18.327Z,95917.00
2022-08-23T04:45:45.873Z,95922.00
2022-08-23T04:48:24.397Z,95920.00
2022-08-23T04:50:52.055Z,95921.00
2022-08-23T04:53:20.937Z,95920.00
2022-08-23T04:56:00.886Z,95918.00
2022-08-23T04:58:31.703Z,95927.00
2022-08-23T05:01:02.078Z,95927.00
2022-08-23T05:03:31.947Z,95932.00
2022-08-23T05:06:01.498Z,95935.00
2022-08-23T05:08:36.143Z,95939.00
2022-08-23T05:11:07.992Z,95931.00
2022-08-23T05:13:38.798Z,95944.00
2022-08-23T05:16:08.592Z,95943.00
2022-08-23T05:18:41.439Z,95943.00
2022-08-23T05:21:17.550Z,95939.00
2022-08-23T05:23:50.843Z,95940.00
2022-08-23T05:26:23.124Z,95947.00
2022-08-23T05:28:51.096Z,95940.00
2022-08-23T05:31:25.962Z,95945.00
2022-08-23T05:33:56.276Z,95960.00
2022-08-23T05:36:30.814Z,95957.00
2022-08-23T05:38:58.734Z,95963.00
2022-08-23T05:41:38.348Z,95962.00
2022-08-23T05:44:10.653Z,95964.00
2022-08-23T05:46:42.344Z,95958.00
2022-08-23T05:49:21.397Z,95958.00
2022-08-23T05:51:51.721Z,95964.00
2022-08-23T05:54:20.748Z,95963.00
2022-08-23T05:57:01.127Z,95970.00
2022-08-23T05:59:28.717Z,95972.00
2022-08-23T06:01:57.704Z,95962.00
2022-08-23T06:04:25.124Z,95973.00
2022-08-23T06:06:52.458Z,95970.00
2022-08-23T06:09:19.955Z,95974.00
2022-08-23T06:11:49.053Z,95973.00
2022-08-23T06:14:18.159Z,95965.00
2022-08-23T06:16:52.567Z,95971.00
2022-08-23T06:19:24.784Z,95971.00
2022-08-23T06:22:08.547Z,95970.00
2022-08-23T06:24:40.033Z,95980.00
2022-08-23T06:27:13.511Z,95982.00
2022-08-23T06:29:41.950Z,95983.00
2022-08-23T06:32:29.455Z,95990.00
2022-08-23T06:35:37.896Z,95992.00
2022-08-23T06:38:08.499Z,95994.00
2022-08-23T06:40:51.087Z,95994.00
2022-08-23T06:43:28.054Z,95995.00
2022-08-23T06:46:25.817Z,95997.00
2022-08-23T06:48:58.596Z,96004.00
2022-08-23T06:51:33.165Z,96006.00
2022-08-23T06:54:15.293Z,96004.00
2022-08-23T06:57:00.316Z,96007.00
2022-08-23T06:59:40.915Z,96002.00
2022-08-23T07:02:32.033Z,95999.00
2022-08-23T07:05:19.691Z,96000.00
2022-08-23T07:07:59.405Z,96000.00
2022-08-23T07:10:27.268Z,96007.00
2022-08-23T07:12:55.145Z,96007.00
2022-08-23T07:15:23.785Z,96014.00
2022-08-23T07:17:51.556Z,96011.00
2022-08-23T07:20:19.521Z,96012.00
2022-08-23T07:22:46.829Z,96011.00
2022-08-23T07:25:14.858Z,96023.00
2022-08-23T07:27:46.891Z,96021.00
2022-08-23T07:30:16.280Z,96020.00
2022-08-23T07:32:46.152Z,96016.00
2022-08-23T07:35:38.187Z,96020.00
2022-08-23T07:38:29.959Z,96024.00
2022-08-23T07:40:59.029Z,96028.00
2022-08-23T07:43:26.689Z,96021.00
2022-08-23T07:45:55.402Z,96026.00
2022-08-23T07:48:37.320Z,96022.00
2022-08-23T07:51:15.458Z,96022.00
2022-08-23T07:53:45.937Z,96030.00
2022-08-23T07:56:18.569Z,96024.00
2022-08-23T07:59:06.941Z,96031.00
2022-08-23T08:02:00.639Z,96042.00
2022-08-23T08:04:28.101Z,96039.00
2022-08-23T08:07:17.703Z,96041.00
2022-08-23T08:09:45.832Z,96037.00
2022-08-23T08:12:15.191Z,96043.00
2022-08-23T08:14:43.959Z,96039.00
2022-08-23T08:17:13.566Z,96043.00
2022-08-23T08:20:10.381Z,96054.00
2022-08-23T08:22:43.322Z,96045.00
2022-08-23T08:25:34.455Z,96045.00
2022-08-23T08:28:05.086Z,96037.00
2022-08-23T08:30:32.547Z,96052.00
2022-08-23T08:33:01.157Z,96061.00
2022-08-23T08:35:29.449Z,96049.00
2022-08-23T08:37:56.883Z,96060.00
2022-08-23T08:40:34.470Z,96062.00
2022-08-23T08:43:21.795Z,96061.00
2022-08-23T08:46:12.039Z,96064.00
2022-08-23T08:48:47.543Z,96066.00
2022-08-23T08:51:40.519Z,96063.00
2022-08-23T08:54:13.524Z,96063.00
2022-08-23T08:56:51.167Z,96059.00
2022-08-23T08:59:45.858Z,96063.00
2022-08-23T09:02:33.236Z,96063.00
2022-08-23T09:05:11.800Z,96065.00
2022-08-23T09:07:59.068Z,96067.00
2022-08-23T09:10:52.147Z,96061.00
2022-08-23T09:13:47.723Z,96063.00
2022-08-23T09:16:21.161Z,96074.00
2022-08-23T09:18:49.046Z,96067.00
2022-08-23T09:21:17.731Z,96066.00
2022-08-23T09:23:48.990Z,96065.00
2022-08-23T09:26:44.419Z,96067.00
2022-08-23T09:29:29.071Z,96059.00
2022-08-23T09:32:03.254Z,96062.00
2022-08-23T09:34:35.985Z,96066.00
2022-08-23T09:37:25.550Z,96063.00
2022-08-23T09:40:16.511Z,96057.00
2022-08-23T09:42:47.468Z,96059.00
2022-08-23T09:45:28.143Z,96059.00
2022-08-23T09:47:57.935Z,96057.00
2022-08-23T09:50:49.450Z,96058.00
2022-08-23T09:53:29.429Z,96054.00
2022-08-23T09:56:11.631Z,96058.00
2022-08-23T09:58:47.322Z,96060.00
2022-08-23T10:01:35.501Z,96053.00
2022-08-23T10:04:17.750Z,96056.00
2022-08-23T10:06:48.080Z,96055.00
2022-08-23T10:09:30.782Z,96060.00
2022-08-23T10:12:03.006Z,96058.00
2022-08-23T10:14:33.081Z,96061.00
2022-08-23T10:17:14.847Z,96058.00
2022-08-23T10:20:23.320Z,96053.00
2022-08-23T10:23:19.915Z,96062.00
2022-08-23T10:25:59.713Z,96058.00
2022-08-23T10:29:08.473Z,96054.00
2022-08-23T10:32:02.307Z,96052.00
2022-08-23T10:35:21.643Z,96048.00
2022-08-23T10:38:20.838Z,96048.00
2022-08-23T10:41:33.835Z,96040.00
2022-08-23T10:44:16.951Z,96040.00
2022-08-23T10:46:54.981Z,96044.00
2022-08-23T10:49:24.266Z,96048.00
2022-08-23T10:51:53.268Z,96048.00
2022-08-23T10:54:46.780Z,96037.00
2022-08-23T10:57:21.862Z,96045.00
2022-08-23T10:59:52.781Z,96037.00
2022-08-23T11:02:37.487Z,96040.00
2022-08-23T11:05:32.619Z,96036.00
2022-08-23T11:08:13.212Z,96027.00
2022-08-23T11:10:55.857Z,96032.00
2022-08-23T11:13:30.004Z,96027.00
2022-08-23T11:16:14.355Z,96024.00
2022-08-23T11:18:50.419Z,96022.00
2022-08-23T11:21:40.617Z,96024.00
2022-08-23T11:24:13.909Z,96020.00
2022-08-23T11:26:44.877Z,96017.00
2022-08-23T11:29:28.961Z,96015.00
2022-08-23T11:32:28.092Z,96021.00
2022-08-23T11:35:13.793Z,96016.00
2022-08-23T11:38:10.691Z,96023.00
2022-08-23T11:40:52.644Z,96019.00
2022-08-23T11:43:26.241Z,96023.00
2022-08-23T11:45:53.914Z,96018.00
2022-08-23T11:48:43.562Z,96016.00
2022-08-23T11:51:46.683Z,96025.00
2022-08-23T11:54:35.726Z,96018.00
2022-08-23T11:57:11.663Z,96019.00
2022-08-23T12:00:28.515Z,96013.00
2022-08-23T12:03:33.744Z,96017.00
2022-08-23T12:06:39.119Z,96013.00
2022-08-23T12:09:22.612Z,96015.00
2022-08-23T12:11:56.234Z,96011.00
2022-08-23T12:14:32.896Z,96014.00
2022-08-23T12:17:13.139Z,96012.00
2022-08-23T12:20:17.168Z,96016.00
2022-08-23T12:22:58.283Z,96012.00
2022-08-23T12:25:26.720Z,96018.00
2022-08-23T12:28:40.924Z,96014.00
2022-08-23T12:31:35.585Z,96011.00
2022-08-23T12:34:25.900Z,96009.00
2022-08-23T12:37:09.499Z,96008.00
2022-08-23T12:39:55.795Z,96001.00
2022-08-23T12:42:29.514Z,96002.00
2022-08-23T12:45:09.022Z,96007.00
2022-08-23T12:47:39.717Z,95999.00
2022-08-23T12:50:33.083Z,95996.00
2022-08-23T12:53:15.773Z,95998.00
2022-08-23T12:55:50.574Z,96004.00
2022-08-23T12:58:33.240Z,95998.00
2022-08-23T13:01:07.704Z,95998.00
2022-08-23T13:03:47.404Z,95995.00
2022-08-23T13:06:31.879Z,95993.00
2022-08-23T13:09:27.387Z,95993.00
2022-08-23T13:11:57.955Z,95995.00
2022-08-23T13:14:39.951Z,95995.00
2022-08-23T13:17:25.073Z,95994.00
2022-08-23T13:20:15.547Z,95991.00
2022-08-23T13:23:28.273Z,95981.00
2022-08-23T13:25:55.395Z,95983.00
2022-08-23T13:28:29.503Z,95984.00
2022-08-23T13:31:08.412Z,95985.00
2022-08-23T13:33:36.634Z,95976.00
2022-08-23T13:36:21.348Z,95990.00
2022-08-23T13:38:50.032Z,95977.00
2022-08-23T13:41:39.108Z,95985.00
2022-08-23T13:44:09.162Z,95975.00
2022-08-23T13:46:45.259Z,95979.00
2022-08-23T13:49:28.696Z,95982.00
2022-08-23T13:54:51.311Z,95990.00
2022-08-23T13:57:22.260Z,95984.00
2022-08-23T13:59:56.328Z,95984.00
2022-08-23T14:02:25.290Z,95984.00
2022-08-23T14:04:52.554Z,95975.00
2022-08-23T14:07:20.417Z,95978.00
2022-08-23T14:09:50.085Z,95975.00
2022-08-23T14:12:27.594Z,95978.00
2022-08-23T14:14:56.970Z,95977.00
2022-08-23T14:17:24.262Z,95970.00
2022-08-23T14:20:31.894Z,95975.00
2022-08-23T14:22:40.404Z,95972.00
2022-08-23T14:25:09.117Z,95963.00
2022-08-23T14:27:39.157Z,95966.00
2022-08-23T14:30:11.658Z,95957.00
2022-08-23T14:32:40.815Z,95962.00
2022-08-23T14:35:08.941Z,95963.00
2022-08-23T14:40:26.966Z,95959.00
2022-08-23T14:42:54.436Z,95963.00
2022-08-23T14:45:21.946Z,95961.00
2022-08-23T14:47:49.091Z,95964.00
2022-08-23T14:50:36.886Z,95959.00
2022-08-23T14:56:20.444Z,95960.00
2022-08-23T15:02:21.806Z,95971.00
2022-08-23T15:04:56.871Z,95967.00
2022-08-23T15:13:20.372Z,95964.00
2022-08-23T15:15:49.394Z,95973.00
2022-08-23T15:18:17.658Z,95965.00
2022-08-23T15:20:46.096Z,95964.00
2022-08-23T15:23:14.221Z,95973.00
2022-08-23T15:25:44.568Z,95967.00
2022-08-23T15:28:17.908Z,95963.00
2022-08-23T15:30:47.057Z,95964.00
2022-08-23T15:33:14.540Z,95960.00
2022-08-23T15:35:46.606Z,95957.00
2022-08-23T15:38:16.348Z,95955.00
2022-08-23T15:40:44.504Z,95961.00
2022-08-23T15:43:12.165Z,95959.00
2022-08-23T15:45:40.215Z,95956.00
2022-08-23T15:48:26.439Z,95959.00
2022-08-23T15:50:54.281Z,95959.00
2022-08-23T15:53:22.796Z,95952.00
2022-08-23T15:55:51.270Z,95960.00
2022-08-23T15:58:25.691Z,95953.00
2022-08-23T16:00:53.953Z,95962.00
2022-08-23T16:03:22.559Z,95958.00
2022-08-23T16:05:53.895Z,95954.00
2022-08-23T16:08:33.108Z,95957.00
2022-08-23T16:11:02.020Z,95954.00
2022-08-23T16:13:29.287Z,95953.00
2022-08-23T16:15:58.387Z,95953.00
2022-08-23T16:18:26.545Z,95953.00
2022-08-23T16:20:54.384Z,95952.00
2022-08-23T16:23:22.986Z,95955.00
2022-08-23T16:26:22.358Z,95951.00
2022-08-23T16:29:01.533Z,95954.00
2022-08-23T16:31:37.475Z,95951.00
2022-08-23T16:34:13.217Z,95952.00
2022-08-23T16:36:43.925Z,95954.00
2022-08-23T16:39:14.055Z,95947.00
2022-08-23T16:41:41.286Z,95951.00
2022-08-23T16:44:08.597Z,95951.00
2022-08-23T16:46:41.323Z,95948.00
2022-08-23T16:49:14.576Z,95949.00
2022-08-23T16:51:42.873Z,95948.00
2022-08-23T16:54:11.198Z,95945.00
2022-08-23T16:56:40.245Z,95953.00
2022-08-23T16:59:09.858Z,95952.00
2022-08-23T17:01:56.171Z,95960.00
2022-08-23T17:04:30.311Z,95957.00
2022-08-23T17:06:59.547Z,95959.00
2022-08-23T17:09:28.670Z,95962.00
2022-08-23T17:11:58.112Z,95959.00
2022-08-23T17:14:26.245Z,95964.00
2022-08-23T17:16:55.095Z,95961.00
2022-08-23T17:19:22.671Z,95962.00
2022-08-23T17:21:50.089Z,95966.00
2022-08-23T17:24:17.385Z,95972.00
2022-08-23T17:26:44.625Z,95966.00
2022-08-23T17:29:12.274Z,95973.00
2022-08-23T17:31:40.233Z,95976.00
2022-08-23T17:34:07.854Z,95978.00
2022-08-23T17:36:47.819Z,95981.00
2022-08-23T17:39:19.387Z,95980.00
2022-08-23T17:41:46.706Z,95985.00
2022-08-23T17:44:15.008Z,95983.00
2022-08-23T17:46:45.717Z,95989.00
2022-08-23T17:49:15.014Z,95988.00
2022-08-23T17:51:42.810Z,95996.00
2022-08-23T17:54:12.932Z,95998.00
2022-08-23T17:56:50.483Z,95997.00
2022-08-23T17:59:20.177Z,96003.00
2022-08-23T18:01:47.417Z,96000.00
2022-08-23T18:04:15.111Z,96012.00
2022-08-23T18:06:42.479Z,96022.00
2022-08-23T18:09:10.232Z,96015.00
2022-08-23T18:11:37.863Z,96031.00
2022-08-23T18:14:05.970Z,96027.00
2022-08-23T18:16:35.539Z,96033.00
2022-08-23T18:19:05.179Z,96033.00
2022-08-23T18:21:36.194Z,96030.00
2022-08-23T18:24:04.375Z,96039.00
2022-08-23T18:26:50.745Z,96035.00
2022-08-23T18:29:17.875Z,96038.00
2022-08-23T18:31:48.672Z,96043.00
2022-08-23T18:34:17.768Z,96042.00
2022-08-23T18:36:44.974Z,96046.00
2022-08-23T18:39:14.887Z,96051.00
2022-08-23T18:41:42.864Z,96054.00
2022-08-23T18:44:11.858Z,96049.00
2022-08-23T18:46:42.296Z,96055.00
2022-08-23T18:49:11.964Z,96058.00
2022-08-23T18:51:40.681Z,96063.00
2022-08-23T18:54:09.890Z,96066.00
2022-08-23T18:56:37.126Z,96066.00
2022-08-23T18:59:06.223Z,96070.00
2022-08-23T19:01:40.430Z,96080.00
2022-08-23T19:04:12.397Z,96075.00
2022-08-23T19:06:41.361Z,96078.00
2022-08-23T19:09:11.364Z,96083.00
2022-08-23T19:11:42.434Z,96083.00
2022-08-23T19:14:29.533Z,96083.00
2022-08-23T19:16:56.949Z,96099.00
2022-08-23T19:19:24.415Z,96093.00
2022-08-23T19:21:51.701Z,96095.00
2022-08-23T19:24:19.018Z,96102.00
2022-08-23T19:26:47.726Z,96104.00
2022-08-23T19:29:18.370Z,96106.00
2022-08-23T19:31:48.007Z,96110.00
2022-08-23T19:34:18.378Z,96113.00
2022-08-23T19:36:51.291Z,96104.00
2022-08-23T19:39:28.021Z,96111.00
2022-08-23T19:41:55.725Z,96109.00
2022-08-23T19:44:23.151Z,96109.00
2022-08-23T19:46:50.811Z,96115.00
2022-08-23T19:49:18.278Z,96119.00
2022-08-23T19:51:45.571Z,96117.00
2022-08-23T19:54:13.125Z,96119.00
2022-08-23T19:56:47.019Z,96124.00
2022-08-23T19:59:21.696Z,96120.00
2022-08-23T20:01:49.986Z,96127.00
2022-08-23T20:04:19.338Z,96121.00
2022-08-23T20:06:48.876Z,96126.00
2022-08-23T20:09:17.646Z,96126.00
2022-08-23T20:11:44.877Z,96137.00
2022-08-23T20:14:12.629Z,96135.00
2022-08-23T20:16:41.611Z,96138.00
2022-08-23T20:19:10.419Z,96141.00
2022-08-23T20:21:40.529Z,96145.00
2022-08-23T20:24:11.579Z,96149.00
2022-08-23T20:26:40.804Z,96150.00
2022-08-23T20:29:10.550Z,96149.00
2022-08-23T20:31:50.066Z,96155.00
2022-08-23T20:34:17.491Z,96153.00
2022-08-23T20:36:45.657Z,96142.00
2022-08-23T20:39:13.061Z,96152.00
2022-08-23T20:41:41.146Z,96151.00
2022-08-23T20:44:09.310Z,96155.00
2022-08-23T20:46:37.194Z,96155.00
2022-08-23T20:49:06.867Z,96151.00
2022-08-23T20:51:36.633Z,96156.00
2022-08-23T20:54:06.975Z,96148.00
2022-08-23T20:56:36.342Z,96150.00
2022-08-23T20:59:05.902Z,96155.00
2022-08-23T21:01:33.452Z,96153.00
2022-08-23T21:04:01.576Z,96156.00
2022-08-23T21:06:45.245Z,96158.00
2022-08-23T21:09:17.092Z,96157.00
2022-08-23T21:11:45.144Z,96156.00
2022-08-23T21:14:15.174Z,96153.00
2022-08-23T21:16:43.024Z,96155.00
2022-08-23T21:19:10.597Z,96154.00
2022-08-23T21:21:42.054Z,96156.00
2022-08-23T21:24:11.725Z,96152.00
2022-08-23T21:26:42.388Z,96157.00
2022-08-23T21:29:10.713Z,96166.00
2022-08-23T21:31:39.177Z,96161.00
2022-08-23T21:34:07.948Z,96165.00
2022-08-23T21:36:36.189Z,96163.00
2022-08-23T21:39:04.901Z,96170.00
2022-08-23T21:41:41.415Z,96164.00
2022-08-23T21:44:13.620Z,96155.00
2022-08-23T21:46:42.085Z,96152.00
2022-08-23T21:49:12.389Z,96156.00
2022-08-23T21:51:41.974Z,96153.00
2022-08-23T21:54:10.448Z,96147.00
2022-08-23T21:56:39.338Z,96151.00
2022-08-23T21:59:26.539Z,96148.00
2022-08-23T22:01:53.917Z,96146.00
2022-08-23T22:04:21.154Z,96138.00
2022-08-23T22:06:48.406Z,96139.00
2022-08-23T22:09:26.188Z,96141.00
2022-08-23T22:12:00.450Z,96145.00
2022-08-23T22:14:31.357Z,96140.00
2022-08-23T22:17:17.997Z,96144.00
2022-08-23T22:19:45.267Z,96142.00
2022-08-23T22:22:12.569Z,96140.00
2022-08-23T22:24:40.541Z,96141.00
2022-08-23T22:27:08.529Z,96134.00
2022-08-23T22:29:35.983Z,96135.00
2022-08-23T22:32:03.821Z,96135.00
2022-08-23T22:34:31.303Z,96137.00
2022-08-23T22:36:58.401Z,96136.00
2022-08-23T22:39:25.980Z,96129.00
2022-08-23T22:41:54.215Z,96126.00
2022-08-23T22:44:21.296Z,96128.00
2022-08-23T22:46:48.679Z,96121.00
2022-08-23T22:49:16.371Z,96117.00
2022-08-23T22:51:43.638Z,96119.00
2022-08-23T22:54:29.403Z,96118.00
2022-08-23T22:56:56.662Z,96117.00
2022-08-23T22:59:26.448Z,96119.00
2022-08-23T23:01:58.202Z,96115.00
2022-08-23T23:04:27.718Z,96111.00
2022-08-23T23:06:55.866Z,96107.00
2022-08-23T23:09:23.865Z,96108.00
2022-08-23T23:11:52.367Z,96112.00
2022-08-23T23:14:21.174Z,96118.00
2022-08-23T23:16:50.055Z,96107.00
2022-08-23T23:19:36.698Z,96109.00
2022-08-23T23:22:07.163Z,96109.00
2022-08-23T23:24:38.785Z,96104.00
2022-08-23T23:27:06.879Z,96104.00
2022-08-23T23:29:34.624Z,96105.00
2022-08-23T23:32:01.773Z,96101.00
2022-08-23T23:34:30.482Z,96109.00
2022-08-23T23:36:59.345Z,96105.00
2022-08-23T23:39:27.499Z,96106.00
2022-08-23T23:41:56.618Z,96108.00
2022-08-23T23:44:31.028Z,96108.00
2022-08-23T23:47:01.417Z,96105.00
2022-08-23T23:49:32.406Z,96105.00
2022-08-23T23:52:03.265Z,96100.00
2022-08-23T23:54:31.501Z,96100.00
2022-08-23T23:56:58.776Z,96106.00
2022-08-23T23:59:26.339Z,96106.00
